createdAt,value
2023-05-18T00:00:19.487Z,2.90
2023-05-18T00:02:50.314Z,2.90
2023-05-18T00:05:21.690Z,2.53
2023-05-18T00:07:53.911Z,2.70
2023-05-18T00:10:24.965Z,2.70
2023-05-18T00:12:55.683Z,2.90
2023-05-18T00:15:26.475Z,2.63
2023-05-18T00:17:57.171Z,3.33
2023-05-18T00:20:29.538Z,2.90
2023-05-18T00:23:01.044Z,3.10
2023-05-18T00:25:32.764Z,2.87
2023-05-18T00:28:03.375Z,3.13
2023-05-18T00:30:34.272Z,2.83
2023-05-18T00:33:04.990Z,3.03
2023-05-18T00:35:35.585Z,2.63
2023-05-18T00:38:06.430Z,2.90
2023-05-18T00:40:36.988Z,3.00
2023-05-18T00:43:07.617Z,3.00
2023-05-18T00:45:39.209Z,2.77
2023-05-18T00:48:10.045Z,2.77
2023-05-18T00:50:41.344Z,2.83
2023-05-18T00:53:13.123Z,2.80
2023-05-18T00:55:44.200Z,2.93
2023-05-18T00:58:14.803Z,2.93
2023-05-18T01:00:45.418Z,3.30
2023-05-18T01:03:16.487Z,3.03
2023-05-18T01:05:49.153Z,2.80
2023-05-18T01:08:21.651Z,2.23
2023-05-18T01:10:55.457Z,3.20
2023-05-18T01:13:34.734Z,2.43
2023-05-18T01:16:08.539Z,3.00
2023-05-18T01:18:43.602Z,2.97
2023-05-18T01:21:25.742Z,2.90
2023-05-18T01:24:03.577Z,2.73
2023-05-18T01:26:40.247Z,2.53
2023-05-18T01:29:15.061Z,2.70
2023-05-18T01:31:45.735Z,2.93
2023-05-18T01:34:16.511Z,2.50
2023-05-18T01:36:47.080Z,2.70
2023-05-18T01:39:19.998Z,3.00
2023-05-18T01:41:59.842Z,2.72
2023-05-18T01:44:39.408Z,2.17
2023-05-18T01:47:16.189Z,2.87
2023-05-18T01:50:01.752Z,2.58
2023-05-18T01:52:38.406Z,2.83
2023-05-18T01:55:11.217Z,3.27
2023-05-18T01:57:45.942Z,3.30
2023-05-18T02:00:18.607Z,2.87
2023-05-18T02:02:50.121Z,3.80
2023-05-18T02:05:20.992Z,4.20
2023-05-18T02:07:51.505Z,3.40
2023-05-18T02:10:22.118Z,2.70
2023-05-18T02:12:53.875Z,2.90
2023-05-18T02:15:24.843Z,2.62
2023-05-18T02:17:57.248Z,4.10
2023-05-18T02:20:30.725Z,3.20
2023-05-18T02:23:01.698Z,3.47
2023-05-18T02:25:32.581Z,3.27
2023-05-18T02:28:03.344Z,3.63
2023-05-18T02:30:36.467Z,3.23
2023-05-18T02:33:08.798Z,3.07
2023-05-18T02:35:41.206Z,3.03
2023-05-18T02:38:12.018Z,3.30
2023-05-18T02:40:42.624Z,2.83
2023-05-18T02:43:14.242Z,3.50
2023-05-18T02:45:44.935Z,3.73
2023-05-18T02:48:15.768Z,3.07
2023-05-18T02:50:47.292Z,3.00
2023-05-18T02:53:17.878Z,3.13
2023-05-18T02:55:48.776Z,3.27
2023-05-18T02:58:20.352Z,2.93
2023-05-18T03:00:53.104Z,2.87
2023-05-18T03:03:26.880Z,2.93
2023-05-18T03:05:59.083Z,2.50
2023-05-18T03:08:32.690Z,3.47
2023-05-18T03:11:03.485Z,2.53
2023-05-18T03:13:34.272Z,2.93
2023-05-18T03:16:05.507Z,2.43
2023-05-18T03:18:36.098Z,2.80
2023-05-18T03:21:08.074Z,3.00
2023-05-18T03:23:38.654Z,3.10
2023-05-18T03:26:11.845Z,3.03
2023-05-18T03:28:42.434Z,2.87
2023-05-18T03:31:14.700Z,2.50
2023-05-18T03:33:45.149Z,2.87
2023-05-18T03:36:16.734Z,3.17
2023-05-18T03:38:47.358Z,2.80
2023-05-18T03:41:22.245Z,3.00
2023-05-18T03:43:52.792Z,2.77
2023-05-18T03:46:23.554Z,3.80
2023-05-18T03:48:54.680Z,3.20
2023-05-18T03:51:26.941Z,3.30
2023-05-18T03:53:57.887Z,2.93
2023-05-18T03:56:30.226Z,2.57
2023-05-18T03:59:00.878Z,3.30
2023-05-18T04:01:35.339Z,3.63
2023-05-18T04:04:05.972Z,3.63
2023-05-18T04:06:37.280Z,3.90
2023-05-18T04:09:07.720Z,3.37
2023-05-18T04:11:38.327Z,3.03
2023-05-18T04:14:14.116Z,3.20
2023-05-18T04:16:44.908Z,3.23
2023-05-18T04:19:18.166Z,3.90
2023-05-18T04:21:49.321Z,3.60
2023-05-18T04:24:20.336Z,3.73
2023-05-18T04:26:52.612Z,3.83
2023-05-18T04:29:23.135Z,3.40
2023-05-18T04:31:56.508Z,3.30
2023-05-18T04:34:28.400Z,3.33
2023-05-18T04:36:59.356Z,3.73
2023-05-18T04:39:30.251Z,3.23
2023-05-18T04:42:01.433Z,3.23
2023-05-18T04:44:34.036Z,3.37
2023-05-18T04:47:04.823Z,3.43
2023-05-18T04:49:35.441Z,3.40
2023-05-18T04:52:07.936Z,3.03
2023-05-18T04:54:40.194Z,3.80
2023-05-18T04:57:10.912Z,4.63
2023-05-18T04:59:42.510Z,3.30
2023-05-18T05:02:13.132Z,3.12
2023-05-18T05:04:43.654Z,2.90
2023-05-18T05:07:14.205Z,3.22
2023-05-18T05:09:46.515Z,2.85
2023-05-18T05:12:17.200Z,2.58
2023-05-18T05:14:47.736Z,2.85
2023-05-18T05:17:19.952Z,2.77
2023-05-18T05:19:50.607Z,2.85
2023-05-18T05:22:24.447Z,3.25
2023-05-18T05:24:55.798Z,2.67
2023-05-18T05:27:27.834Z,3.08
2023-05-18T05:29:58.452Z,2.40
2023-05-18T05:32:29.521Z,2.40
2023-05-18T05:35:00.189Z,2.60
2023-05-18T05:37:32.037Z,2.60
2023-05-18T05:40:03.628Z,2.77
2023-05-18T05:42:34.776Z,2.45
2023-05-18T05:45:06.121Z,2.60
2023-05-18T05:47:36.855Z,2.60
2023-05-18T05:50:08.203Z,2.90
2023-05-18T05:52:38.797Z,2.40
2023-05-18T05:55:09.734Z,2.77
2023-05-18T05:57:41.879Z,2.30
2023-05-18T06:00:13.632Z,2.67
2023-05-18T06:02:44.268Z,2.80
2023-05-18T06:05:15.020Z,1.98
2023-05-18T06:07:45.503Z,2.47
2023-05-18T06:10:18.843Z,2.40
2023-05-18T06:12:49.560Z,3.02
2023-05-18T06:15:20.599Z,2.55
2023-05-18T06:17:51.178Z,2.80
2023-05-18T06:20:22.905Z,2.70
2023-05-18T06:22:54.252Z,2.75
2023-05-18T06:25:24.988Z,2.70
2023-05-18T06:27:55.920Z,2.70
2023-05-18T06:30:26.643Z,2.70
2023-05-18T06:32:57.272Z,2.70
2023-05-18T06:35:28.013Z,2.72
2023-05-18T06:37:58.714Z,3.15
2023-05-18T06:40:29.914Z,2.85
2023-05-18T06:43:00.925Z,2.67
2023-05-18T06:45:32.604Z,2.90
2023-05-18T06:48:04.409Z,2.72
2023-05-18T06:50:34.982Z,3.08
2023-05-18T06:53:06.558Z,2.70
2023-05-18T06:55:37.892Z,2.72
2023-05-18T06:58:08.597Z,3.00
2023-05-18T07:00:39.737Z,2.98
2023-05-18T07:03:10.940Z,2.50
2023-05-18T07:05:42.201Z,2.70
2023-05-18T07:08:12.958Z,2.85
2023-05-18T07:10:43.578Z,3.00
2023-05-18T07:13:14.202Z,2.65
2023-05-18T07:15:45.139Z,2.75
2023-05-18T07:18:15.727Z,2.20
2023-05-18T07:20:46.614Z,2.33
2023-05-18T07:23:19.610Z,3.10
2023-05-18T07:25:52.239Z,2.70
2023-05-18T07:28:24.452Z,3.02
2023-05-18T07:30:55.136Z,3.20
2023-05-18T07:33:26.598Z,2.70
2023-05-18T07:35:57.320Z,2.80
2023-05-18T07:38:29.347Z,2.40
2023-05-18T07:41:01.574Z,2.47
2023-05-18T07:43:32.158Z,2.52
2023-05-18T07:46:02.680Z,2.80
2023-05-18T07:48:34.816Z,2.40
2023-05-18T07:51:07.305Z,2.50
2023-05-18T07:53:38.077Z,5.33
2023-05-18T07:56:09.190Z,2.77
2023-05-18T07:58:41.387Z,3.15
2023-05-18T08:01:12.169Z,2.60
2023-05-18T08:03:42.895Z,2.77
2023-05-18T08:06:14.718Z,2.95
2023-05-18T08:08:45.384Z,2.37
2023-05-18T08:11:17.502Z,2.40
2023-05-18T08:13:47.951Z,2.55
2023-05-18T08:16:18.473Z,2.27
2023-05-18T08:18:48.954Z,2.52
2023-05-18T08:21:19.772Z,2.65
2023-05-18T08:23:50.635Z,3.02
2023-05-18T08:26:22.124Z,2.20
2023-05-18T08:28:52.652Z,2.30
2023-05-18T08:31:23.151Z,2.60
2023-05-18T08:33:53.937Z,2.35
2023-05-18T08:36:25.071Z,2.15
2023-05-18T08:38:55.596Z,2.47
2023-05-18T08:41:32.321Z,2.37
2023-05-18T08:44:08.609Z,2.75
2023-05-18T08:46:42.668Z,2.40
2023-05-18T08:49:13.882Z,2.75
2023-05-18T08:51:50.908Z,2.00
2023-05-18T08:54:23.651Z,2.42
2023-05-18T08:56:55.203Z,2.58
2023-05-18T08:59:28.329Z,2.72
2023-05-18T09:02:01.050Z,2.50
2023-05-18T09:04:37.134Z,2.42
2023-05-18T09:07:11.030Z,2.00
2023-05-18T09:09:44.038Z,1.92
2023-05-18T09:12:15.691Z,1.98
2023-05-18T09:14:47.468Z,2.20
2023-05-18T09:17:18.161Z,2.60
2023-05-18T09:19:48.750Z,2.50
2023-05-18T09:22:20.106Z,2.55
2023-05-18T09:24:50.825Z,2.37
2023-05-18T09:27:22.341Z,2.65
2023-05-18T09:29:57.637Z,2.75
2023-05-18T09:32:29.830Z,2.83
2023-05-18T09:35:06.781Z,3.00
2023-05-18T09:37:37.426Z,3.33
2023-05-18T09:40:11.576Z,2.95
2023-05-18T09:42:45.083Z,2.87
2023-05-18T09:45:25.609Z,3.15
2023-05-18T09:47:57.099Z,3.00
2023-05-18T09:50:27.944Z,2.62
2023-05-18T09:52:58.888Z,2.52
2023-05-18T09:55:29.734Z,3.27
2023-05-18T09:58:02.426Z,2.77
2023-05-18T10:00:33.098Z,2.80
2023-05-18T10:03:04.134Z,2.70
2023-05-18T10:05:36.291Z,2.10
2023-05-18T10:08:07.114Z,2.58
2023-05-18T10:10:41.031Z,2.42
2023-05-18T10:13:15.194Z,3.12
2023-05-18T10:15:51.458Z,2.72
2023-05-18T10:18:27.492Z,2.70
2023-05-18T10:21:00.714Z,3.02
2023-05-18T10:23:36.352Z,2.80
2023-05-18T10:26:09.702Z,2.85
2023-05-18T10:28:47.476Z,3.62
2023-05-18T10:31:19.240Z,2.90
2023-05-18T10:33:52.691Z,3.30
2023-05-18T10:36:25.861Z,2.35
2023-05-18T10:38:59.169Z,2.50
2023-05-18T10:41:32.564Z,2.47
2023-05-18T10:44:04.320Z,2.77
2023-05-18T10:46:36.741Z,3.27
2023-05-18T10:49:10.675Z,2.60
2023-05-18T10:51:44.712Z,2.70
2023-05-18T10:54:18.298Z,2.72
2023-05-18T10:56:53.630Z,2.92
2023-05-18T10:59:24.824Z,2.55
2023-05-18T11:01:58.484Z,2.87
2023-05-18T11:04:31.034Z,3.67
2023-05-18T11:07:02.444Z,2.60
2023-05-18T11:09:32.919Z,2.95
2023-05-18T11:12:03.963Z,3.02
2023-05-18T11:14:36.711Z,3.70
2023-05-18T11:17:27.565Z,2.77
2023-05-18T11:20:11.910Z,3.00
2023-05-18T11:22:45.585Z,2.70
2023-05-18T11:25:30.275Z,3.05
2023-05-18T11:28:11.943Z,3.12
2023-05-18T11:30:45.601Z,3.10
2023-05-18T11:33:19.264Z,2.50
2023-05-18T11:36:01.561Z,3.02
2023-05-18T11:38:54.947Z,2.35
2023-05-18T11:41:41.242Z,3.37
2023-05-18T11:44:17.288Z,2.98
2023-05-18T11:46:56.488Z,3.42
2023-05-18T11:49:35.918Z,2.65
2023-05-18T11:52:23.365Z,3.12
2023-05-18T11:54:59.280Z,2.95
2023-05-18T11:57:39.252Z,2.70
2023-05-18T12:00:12.990Z,2.80
2023-05-18T12:02:46.398Z,2.77
2023-05-18T12:05:18.952Z,2.15
2023-05-18T12:07:57.080Z,2.62
2023-05-18T12:10:29.173Z,2.62
2023-05-18T12:13:01.617Z,2.95
2023-05-18T12:15:33.060Z,2.50
2023-05-18T12:18:04.179Z,2.60
2023-05-18T12:20:35.905Z,2.50
2023-05-18T12:23:06.470Z,2.55
2023-05-18T12:25:37.548Z,2.80
2023-05-18T12:28:09.563Z,2.83
2023-05-18T12:30:40.284Z,2.30
2023-05-18T12:33:13.060Z,2.40
2023-05-18T12:35:43.887Z,2.55
2023-05-18T12:38:17.538Z,2.72
2023-05-18T12:40:48.957Z,2.50
2023-05-18T12:43:19.802Z,2.77
2023-05-18T12:45:50.982Z,2.80
2023-05-18T12:48:23.337Z,2.70
2023-05-18T12:50:55.618Z,2.65
2023-05-18T12:53:26.631Z,2.05
2023-05-18T12:56:01.776Z,2.52
2023-05-18T12:58:33.053Z,2.37
2023-05-18T13:01:10.908Z,3.08
2023-05-18T13:03:42.524Z,2.75
2023-05-18T13:06:13.260Z,3.20
2023-05-18T13:08:47.052Z,2.87
2023-05-18T13:11:19.140Z,2.60
2023-05-18T13:14:05.736Z,2.40
2023-05-18T13:16:42.008Z,2.33
2023-05-18T13:19:14.390Z,3.25
2023-05-18T13:21:46.702Z,3.27
2023-05-18T13:24:17.263Z,2.25
2023-05-18T13:26:48.640Z,2.42
2023-05-18T13:29:19.423Z,2.92
2023-05-18T13:31:49.964Z,2.50
2023-05-18T13:34:20.815Z,2.35
2023-05-18T13:36:52.079Z,2.90
2023-05-18T13:39:22.841Z,2.95
2023-05-18T13:41:53.317Z,3.25
2023-05-18T13:44:23.866Z,2.98
2023-05-18T13:46:54.399Z,3.00
2023-05-18T13:49:25.355Z,2.58
2023-05-18T13:51:56.078Z,2.40
2023-05-18T13:54:26.666Z,2.42
2023-05-18T13:56:57.347Z,2.58
2023-05-18T13:59:27.828Z,2.40
2023-05-18T14:01:58.364Z,3.02
2023-05-18T14:04:30.209Z,3.00
2023-05-18T14:07:00.812Z,2.80
2023-05-18T14:09:31.297Z,2.42
2023-05-18T14:12:02.206Z,2.42
2023-05-18T14:14:32.796Z,3.10
2023-05-18T14:17:04.972Z,2.70
2023-05-18T14:19:36.177Z,2.70
2023-05-18T14:22:07.027Z,2.45
2023-05-18T14:24:37.537Z,3.05
2023-05-18T14:27:08.057Z,2.60
2023-05-18T14:29:38.751Z,2.92
2023-05-18T14:32:09.483Z,2.50
2023-05-18T14:34:40.010Z,3.58
2023-05-18T14:37:10.502Z,3.00
2023-05-18T14:39:41.093Z,3.37
2023-05-18T14:42:14.122Z,3.12
2023-05-18T14:44:44.618Z,3.15
2023-05-18T14:47:17.865Z,3.10
2023-05-18T14:49:48.951Z,3.10
2023-05-18T14:52:19.545Z,2.87
2023-05-18T14:54:50.052Z,3.00
2023-05-18T14:57:20.675Z,2.77
2023-05-18T14:59:51.470Z,2.58
2023-05-18T15:02:23.030Z,2.70
2023-05-18T15:04:53.597Z,2.58
2023-05-18T15:07:26.525Z,2.90
2023-05-18T15:09:57.643Z,2.90
2023-05-18T15:16:34.431Z,2.87
2023-05-18T15:18:28.361Z,2.80
2023-05-18T15:21:19.530Z,2.90
2023-05-18T15:23:51.718Z,2.72
2023-05-18T15:26:28.337Z,3.10
2023-05-18T15:29:25.524Z,2.70
2023-05-18T15:32:11.147Z,2.52
2023-05-18T15:34:42.745Z,2.83
2023-05-18T15:37:16.369Z,2.55
2023-05-18T15:39:48.582Z,2.17
2023-05-18T15:42:19.953Z,2.62
2023-05-18T15:44:50.548Z,2.65
2023-05-18T15:47:21.122Z,2.52
2023-05-18T15:49:51.654Z,2.40
2023-05-18T15:52:22.229Z,2.60
2023-05-18T15:54:52.789Z,2.65
2023-05-18T15:57:23.348Z,2.83
2023-05-18T15:59:54.197Z,2.33
2023-05-18T16:02:25.894Z,2.37
2023-05-18T16:04:56.923Z,2.83
2023-05-18T16:07:27.488Z,2.52
2023-05-18T16:09:58.035Z,2.47
2023-05-18T16:12:30.832Z,2.33
2023-05-18T16:15:01.418Z,2.72
2023-05-18T16:17:31.963Z,2.40
2023-05-18T16:20:04.264Z,2.30
2023-05-18T16:22:35.052Z,2.20
2023-05-18T16:25:06.021Z,2.50
2023-05-18T16:27:36.508Z,2.65
2023-05-18T16:30:08.227Z,2.30
2023-05-18T16:32:40.362Z,2.25
2023-05-18T16:35:13.853Z,2.35
2023-05-18T16:37:44.335Z,2.55
2023-05-18T16:40:15.390Z,2.47
2023-05-18T16:42:47.528Z,2.10
2023-05-18T16:45:20.951Z,2.87
2023-05-18T16:47:51.571Z,2.35
2023-05-18T16:50:24.101Z,2.70
2023-05-18T16:52:55.607Z,2.72
2023-05-18T16:55:26.615Z,2.30
2023-05-18T16:57:58.206Z,2.52
2023-05-18T17:00:31.057Z,2.70
2023-05-18T17:03:04.791Z,2.87
2023-05-18T17:05:35.996Z,2.62
2023-05-18T17:08:11.142Z,2.70
2023-05-18T17:10:44.024Z,2.90
2023-05-18T17:13:16.247Z,2.80
2023-05-18T17:15:51.097Z,2.60
2023-05-18T17:18:20.308Z,3.47
2023-05-18T17:20:51.515Z,2.50
2023-05-18T17:23:22.092Z,2.52
2023-05-18T17:26:00.849Z,2.42
2023-05-18T17:28:26.619Z,2.92
2023-05-18T17:30:57.376Z,3.27
2023-05-18T17:33:27.927Z,2.42
2023-05-18T17:35:59.984Z,2.67
2023-05-18T17:38:30.747Z,2.35
2023-05-18T17:41:02.918Z,2.60
2023-05-18T17:43:33.382Z,2.22
2023-05-18T17:46:06.365Z,2.70
2023-05-18T17:48:38.530Z,2.15
2023-05-18T17:51:09.447Z,2.52
2023-05-18T17:53:42.510Z,2.80
2023-05-18T17:56:13.316Z,2.30
2023-05-18T17:58:43.967Z,2.27
2023-05-18T18:01:14.656Z,2.40
2023-05-18T18:03:45.475Z,2.20
2023-05-18T18:06:18.005Z,2.30
2023-05-18T18:08:57.172Z,2.33
2023-05-18T18:11:28.327Z,2.50
2023-05-18T18:13:59.586Z,2.50
2023-05-18T18:16:30.346Z,2.37
2023-05-18T18:19:02.687Z,2.62
2023-05-18T18:21:33.179Z,3.15
2023-05-18T18:24:03.792Z,3.45
2023-05-18T18:26:35.975Z,3.00
2023-05-18T18:29:06.984Z,3.00
2023-05-18T18:31:37.567Z,3.27
2023-05-18T18:34:08.405Z,3.20
2023-05-18T18:36:41.226Z,3.17
2023-05-18T18:39:12.373Z,2.95
2023-05-18T18:41:44.374Z,3.27
2023-05-18T18:44:14.826Z,2.90
2023-05-18T18:46:46.624Z,3.27
2023-05-18T18:49:17.151Z,3.20
2023-05-18T18:51:48.291Z,3.47
2023-05-18T18:54:18.839Z,3.40
2023-05-18T18:56:49.562Z,3.52
2023-05-18T18:59:19.997Z,5.42
2023-05-18T19:01:50.624Z,3.60
2023-05-18T19:04:22.553Z,3.77
2023-05-18T19:06:54.735Z,3.98
2023-05-18T19:09:25.549Z,3.60
2023-05-18T19:11:58.070Z,4.00
2023-05-18T19:14:28.763Z,4.50
2023-05-18T19:16:59.526Z,4.42
2023-05-18T19:19:31.887Z,5.12
2023-05-18T19:22:02.404Z,5.03
2023-05-18T19:24:33.511Z,5.20
2023-05-18T19:27:04.429Z,5.50
2023-05-18T19:29:36.946Z,5.42
2023-05-18T19:32:07.981Z,5.35
2023-05-18T19:34:40.441Z,4.90
2023-05-18T19:37:11.264Z,4.50
2023-05-18T19:39:45.546Z,6.97
2023-05-18T19:42:16.087Z,5.60
2023-05-18T19:44:46.889Z,5.22
2023-05-18T19:47:17.365Z,5.33
2023-05-18T19:49:47.901Z,4.12
2023-05-18T19:52:21.838Z,3.65
2023-05-18T19:54:52.475Z,4.35
2023-05-18T19:57:22.959Z,4.80
2023-05-18T19:59:54.208Z,4.55
2023-05-18T20:02:24.818Z,5.22
2023-05-18T20:04:55.439Z,4.30
2023-05-18T20:07:28.337Z,4.72
2023-05-18T20:09:59.351Z,4.10
2023-05-18T20:12:31.338Z,4.83
2023-05-18T20:15:03.672Z,4.70
2023-05-18T20:17:34.537Z,4.53
2023-05-18T20:20:07.036Z,4.15
2023-05-18T20:22:38.559Z,4.40
2023-05-18T20:25:10.149Z,3.45
2023-05-18T20:27:40.861Z,3.90
2023-05-18T20:30:12.422Z,3.45
2023-05-18T20:32:44.674Z,3.40
2023-05-18T20:35:15.896Z,3.55
2023-05-18T20:37:46.670Z,3.65
2023-05-18T20:40:17.124Z,3.67
2023-05-18T20:42:47.894Z,4.10
2023-05-18T20:45:18.437Z,4.05
2023-05-18T20:47:51.069Z,4.62
2023-05-18T20:50:24.306Z,4.43
2023-05-18T20:52:54.845Z,4.15
2023-05-18T20:55:25.771Z,3.40
2023-05-18T20:57:56.315Z,3.47
2023-05-18T21:00:26.775Z,3.83
2023-05-18T21:02:57.713Z,3.60
2023-05-18T21:05:28.385Z,3.58
2023-05-18T21:07:59.329Z,3.83
2023-05-18T21:10:30.138Z,3.92
2023-05-18T21:13:01.000Z,3.37
2023-05-18T21:15:33.241Z,3.30
2023-05-18T21:18:05.059Z,3.50
2023-05-18T21:20:38.007Z,3.37
2023-05-18T21:23:08.685Z,3.98
2023-05-18T21:25:39.183Z,3.77
2023-05-18T21:28:10.326Z,4.28
2023-05-18T21:30:42.407Z,4.10
2023-05-18T21:33:13.214Z,3.85
2023-05-18T21:35:44.386Z,4.00
2023-05-18T21:38:14.937Z,3.90
2023-05-18T21:40:46.615Z,3.80
2023-05-18T21:43:17.518Z,3.77
2023-05-18T21:45:52.299Z,4.00
2023-05-18T21:48:23.314Z,4.13
2023-05-18T21:50:53.792Z,3.60
2023-05-18T21:53:24.982Z,3.75
2023-05-18T21:55:55.511Z,3.53
2023-05-18T21:58:26.167Z,3.33
2023-05-18T22:00:56.779Z,3.35
2023-05-18T22:03:27.664Z,3.90
2023-05-18T22:05:58.466Z,4.57
2023-05-18T22:08:29.312Z,3.83
2023-05-18T22:10:59.912Z,3.63
2023-05-18T22:13:30.773Z,3.40
2023-05-18T22:16:01.496Z,3.50
2023-05-18T22:18:32.416Z,3.58
2023-05-18T22:21:03.018Z,3.42
2023-05-18T22:23:35.595Z,3.93
2023-05-18T22:26:07.406Z,3.50
2023-05-18T22:28:41.647Z,3.57
2023-05-18T22:31:12.606Z,3.40
2023-05-18T22:33:43.769Z,3.92
2023-05-18T22:36:14.939Z,4.35
2023-05-18T22:38:46.020Z,3.98
2023-05-18T22:41:17.178Z,5.07
2023-05-18T22:43:47.758Z,5.12
2023-05-18T22:46:20.683Z,5.35
2023-05-18T22:48:53.129Z,3.80
2023-05-18T22:51:23.631Z,3.83
2023-05-18T22:53:54.165Z,3.70
2023-05-18T22:56:27.094Z,3.52
2023-05-18T22:58:57.586Z,3.23
2023-05-18T23:01:28.125Z,3.40
2023-05-18T23:04:00.226Z,3.90
2023-05-18T23:06:31.650Z,3.50
2023-05-18T23:09:02.132Z,3.30
2023-05-18T23:11:34.189Z,3.70
2023-05-18T23:14:04.691Z,3.60
2023-05-18T23:16:35.466Z,3.63
2023-05-18T23:19:07.677Z,4.83
2023-05-18T23:21:40.514Z,4.93
2023-05-18T23:24:13.577Z,4.55
2023-05-18T23:26:45.086Z,4.50
2023-05-18T23:29:15.924Z,4.25
2023-05-18T23:31:46.409Z,3.33
2023-05-18T23:34:18.503Z,3.77
2023-05-18T23:36:52.903Z,3.80
2023-05-18T23:39:23.582Z,3.40
2023-05-18T23:41:57.053Z,3.33
2023-05-18T23:44:29.609Z,3.17
2023-05-18T23:47:00.910Z,3.83
2023-05-18T23:49:31.988Z,3.20
2023-05-18T23:52:03.597Z,3.30
2023-05-18T23:54:35.131Z,3.63
2023-05-18T23:57:10.697Z,3.50
2023-05-18T23:59:42.656Z,3.77
